Time;durP1;ratioP1;P1;durP2;ratioP2;P2;SDS_P1;SDS_P2;PMS_P1;PMS_P2;Temp;Humidity;BMP_temperature;BMP_pressure;BME280_temperature;BME280_humidity;BME280_pressure;Samples;Min_cycle;Max_cycle;Signal;HPM_P1;HPM_P2
2023/12/04 00:00:59;;;;;;;17.80;8.88;;;-2.00;99.90;;;;;;5038337;28;20084;-59
2023/12/04 00:03:25;;;;;;;20.10;9.15;;;-2.00;99.90;;;;;;5017976;28;20490;-58
2023/12/04 00:05:51;;;;;;;18.75;8.88;;;-2.00;99.90;;;;;;5024637;28;20075;-60
2023/12/04 00:08:16;;;;;;;20.90;9.90;;;-2.00;99.90;;;;;;5018130;28;20488;-54
2023/12/04 00:10:42;;;;;;;20.13;9.38;;;-2.00;99.90;;;;;;5017413;28;20038;-59
2023/12/04 00:13:07;;;;;;;17.85;9.15;;;-2.00;99.90;;;;;;5015097;28;20132;-58
2023/12/04 00:15:33;;;;;;;23.35;9.25;;;-2.10;99.90;;;;;;5020948;28;20064;-57
2023/12/04 00:17:59;;;;;;;21.52;11.23;;;-2.10;99.90;;;;;;5014448;28;20145;-58
2023/12/04 00:20:24;;;;;;;17.85;8.65;;;-2.10;99.90;;;;;;5007246;28;20042;-59
2023/12/04 00:22:50;;;;;;;19.52;9.82;;;-2.10;99.90;;;;;;5009213;28;20041;-55
2023/12/04 00:25:15;;;;;;;18.42;9.45;;;-2.10;99.90;;;;;;5007013;28;20030;-59
2023/12/04 00:27:41;;;;;;;17.70;9.35;;;-2.10;99.90;;;;;;5006342;28;20620;-61
2023/12/04 00:30:07;;;;;;;18.30;8.68;;;-2.10;99.90;;;;;;5007324;28;20044;-61
2023/12/04 00:32:33;;;;;;;16.10;7.72;;;-2.00;99.90;;;;;;5023574;28;20048;-59
2023/12/04 00:34:58;;;;;;;16.00;8.00;;;-2.00;99.90;;;;;;5026951;28;20773;-56
2023/12/04 00:37:24;;;;;;;13.27;6.25;;;-2.00;99.90;;;;;;5026976;28;20049;-60
2023/12/04 00:39:49;;;;;;;16.35;7.65;;;-1.90;99.90;;;;;;5026996;28;20029;-60
2023/12/04 00:42:15;;;;;;;16.85;6.90;;;-1.90;99.90;;;;;;5023733;28;20105;-53
2023/12/04 00:44:40;;;;;;;16.35;7.78;;;-1.90;99.90;;;;;;5027072;28;20104;-56
2023/12/04 00:47:06;;;;;;;14.43;7.55;;;-1.90;99.90;;;;;;5024099;28;20037;-58
2023/12/04 00:49:31;;;;;;;21.35;9.57;;;-1.90;99.90;;;;;;5026472;28;20033;-58
2023/12/04 00:51:57;;;;;;;21.55;10.90;;;-1.90;99.90;;;;;;5029289;28;20030;-59
2023/12/04 00:54:22;;;;;;;22.83;11.57;;;-1.90;99.90;;;;;;5024741;28;20048;-56
2023/12/04 00:56:48;;;;;;;23.67;12.32;;;-2.00;99.90;;;;;;5026422;28;20037;-58
2023/12/04 00:59:14;;;;;;;23.23;12.50;;;-2.00;99.90;;;;;;5024068;28;20048;-61
2023/12/04 01:01:39;;;;;;;21.85;10.27;;;-2.10;99.90;;;;;;5029165;28;20047;-57
2023/12/04 01:04:05;;;;;;;19.17;9.73;;;-2.10;99.90;;;;;;5023285;28;20047;-58
2023/12/04 01:06:30;;;;;;;18.05;9.07;;;-2.10;99.90;;;;;;5026996;28;20505;-60
2023/12/04 01:08:56;;;;;;;22.58;11.68;;;-2.10;99.90;;;;;;5023528;28;20045;-60
2023/12/04 01:11:22;;;;;;;26.45;11.95;;;-2.10;99.90;;;;;;5025933;28;20041;-58
2023/12/04 01:13:50;;;;;;;17.58;9.68;;;-2.10;99.90;;;;;;5022606;28;20030;-58
2023/12/04 01:16:17;;;;;;;19.08;9.73;;;-2.10;99.90;;;;;;5026247;28;20203;-57
2023/12/04 01:18:43;;;;;;;23.83;11.77;;;-2.10;99.90;;;;;;5026362;28;20481;-53
2023/12/04 01:21:09;;;;;;;24.02;11.18;;;-2.00;99.90;;;;;;5026759;28;20041;-53
2023/12/04 01:23:35;;;;;;;19.27;9.45;;;-2.00;99.90;;;;;;5025875;28;20029;-61
2023/12/04 01:26:01;;;;;;;23.65;12.30;;;-2.00;99.90;;;;;;5026057;28;20143;-57
2023/12/04 01:28:27;;;;;;;23.52;11.25;;;-2.00;99.90;;;;;;5024051;28;20122;-57
2023/12/04 01:30:52;;;;;;;23.90;12.23;;;-2.00;99.90;;;;;;5026870;28;20061;-58
2023/12/04 01:33:18;;;;;;;24.15;12.57;;;-2.00;99.90;;;;;;5003703;28;20036;-58
2023/12/04 01:35:44;;;;;;;25.38;11.80;;;-2.10;99.90;;;;;;5041613;28;20173;-59
2023/12/04 01:38:09;;;;;;;23.10;11.60;;;-2.10;99.90;;;;;;5009221;28;20034;-59
2023/12/04 01:40:35;;;;;;;22.30;11.40;;;-2.20;99.90;;;;;;5012647;28;20133;-61
2023/12/04 01:43:01;;;;;;;22.77;11.25;;;-2.10;99.90;;;;;;5002335;28;20104;-59
2023/12/04 01:45:27;;;;;;;22.63;11.85;;;-2.20;99.90;;;;;;5010584;28;20048;-56
2023/12/04 01:47:53;;;;;;;23.30;11.98;;;-2.20;99.90;;;;;;5006677;28;20034;-57
2023/12/04 01:50:19;;;;;;;24.10;11.18;;;-2.10;99.90;;;;;;5005746;28;20037;-60
2023/12/04 01:52:46;;;;;;;22.85;10.45;;;-2.10;99.90;;;;;;5002125;28;20033;-61
2023/12/04 01:55:12;;;;;;;23.20;10.55;;;-2.10;99.90;;;;;;5007898;28;20587;-60
2023/12/04 01:57:38;;;;;;;15.23;8.48;;;-2.00;99.90;;;;;;5005000;28;20095;-58
2023/12/04 02:00:06;;;;;;;13.57;7.95;;;-2.00;99.90;;;;;;5006903;28;20041;-57
2023/12/04 02:02:31;;;;;;;15.65;8.10;;;-2.10;99.90;;;;;;5018136;28;20084;-57
2023/12/04 02:04:59;;;;;;;14.50;7.70;;;-2.00;99.90;;;;;;5028442;28;20061;-56
2023/12/04 02:07:25;;;;;;;15.70;8.05;;;-2.00;99.90;;;;;;5027086;28;20065;-59
2023/12/04 02:09:50;;;;;;;16.02;8.00;;;-2.00;99.90;;;;;;5024915;28;20041;-60
2023/12/04 02:12:16;;;;;;;17.20;8.70;;;-1.90;99.90;;;;;;5023538;28;20063;-59
2023/12/04 02:14:43;;;;;;;15.18;8.23;;;-2.00;99.90;;;;;;5025433;28;20116;-56
2023/12/04 02:17:10;;;;;;;14.60;7.43;;;-1.90;99.90;;;;;;5024797;28;20075;-58
2023/12/04 02:19:36;;;;;;;16.52;8.07;;;-2.00;99.90;;;;;;5022126;28;20045;-55
2023/12/04 02:22:02;;;;;;;14.27;7.38;;;-1.90;99.90;;;;;;5025688;28;20598;-57
2023/12/04 02:24:28;;;;;;;14.85;7.75;;;-1.90;99.90;;;;;;5022919;28;20064;-53
2023/12/04 02:26:58;;;;;;;14.63;7.25;;;-1.80;99.90;;;;;;5026134;28;20052;-51
2023/12/04 02:29:29;;;;;;;14.63;8.05;;;-1.80;99.90;;;;;;5022391;28;20111;-53
2023/12/04 02:31:56;;;;;;;14.98;8.02;;;-1.80;99.90;;;;;;5008895;28;20048;-58
2023/12/04 02:34:23;;;;;;;13.93;7.05;;;-1.80;99.90;;;;;;5007315;28;20481;-59
2023/12/04 02:36:51;;;;;;;13.18;7.13;;;-1.80;99.90;;;;;;5008537;28;20041;-57
2023/12/04 02:39:17;;;;;;;12.65;6.57;;;-1.80;99.90;;;;;;5002340;28;20049;-57
2023/12/04 02:41:42;;;;;;;14.65;7.43;;;-1.90;99.90;;;;;;5004797;28;20042;-54
2023/12/04 02:44:08;;;;;;;12.98;6.75;;;-1.90;99.90;;;;;;5001459;28;20042;-57
2023/12/04 02:46:34;;;;;;;12.10;6.80;;;-1.90;99.90;;;;;;5004818;28;20132;-55
2023/12/04 02:48:59;;;;;;;14.00;6.47;;;-1.90;99.90;;;;;;5000978;28;20121;-61
2023/12/04 02:51:26;;;;;;;10.18;5.40;;;-1.90;99.90;;;;;;5006688;28;20040;-57
2023/12/04 02:53:52;;;;;;;13.15;5.88;;;-2.00;99.90;;;;;;5003140;28;20053;-58
2023/12/04 02:56:17;;;;;;;13.45;6.45;;;-1.90;99.90;;;;;;5007238;28;20056;-57
2023/12/04 02:58:43;;;;;;;11.95;5.97;;;-1.90;99.90;;;;;;5000027;28;20639;-60
2023/12/04 03:01:08;;;;;;;12.38;6.65;;;-1.90;99.90;;;;;;5015007;28;20038;-57
2023/12/04 03:03:34;;;;;;;11.50;6.18;;;-2.00;99.90;;;;;;5019827;28;20060;-53
2023/12/04 03:05:59;;;;;;;15.63;6.25;;;-2.00;99.90;;;;;;5024319;28;20099;-53
2023/12/04 03:08:25;;;;;;;11.95;6.40;;;-2.00;99.90;;;;;;5019613;28;20045;-60
2023/12/04 03:10:50;;;;;;;12.80;6.35;;;-2.00;99.90;;;;;;5026527;28;20043;-60
2023/12/04 03:13:16;;;;;;;12.88;6.15;;;-2.00;99.90;;;;;;5018527;28;20030;-58
2023/12/04 03:15:41;;;;;;;10.27;5.30;;;-2.00;99.90;;;;;;5018000;28;20114;-60
2023/12/04 03:18:07;;;;;;;12.07;6.45;;;-2.00;99.90;;;;;;5020071;28;20046;-59
2023/12/04 03:20:33;;;;;;;10.57;6.00;;;-1.90;99.90;;;;;;5026068;28;20038;-56
2023/12/04 03:22:58;;;;;;;10.07;5.60;;;-1.90;99.90;;;;;;5022362;28;20041;-59
2023/12/04 03:25:24;;;;;;;8.43;5.00;;;-1.80;99.90;;;;;;5023466;28;20041;-59
2023/12/04 03:27:50;;;;;;;9.80;4.75;;;-1.80;99.90;;;;;;5022867;28;20030;-60
2023/12/04 03:30:16;;;;;;;9.25;4.95;;;-1.70;99.90;;;;;;5026066;28;20056;-59
2023/12/04 03:32:41;;;;;;;10.63;5.05;;;-1.70;99.90;;;;;;5019198;28;20054;-56
2023/12/04 03:35:07;;;;;;;10.45;5.07;;;-1.70;99.90;;;;;;5025806;28;20124;-56
2023/12/04 03:37:33;;;;;;;8.90;4.28;;;-1.70;99.90;;;;;;5021039;28;20048;-57
2023/12/04 03:39:59;;;;;;;10.07;4.10;;;-1.60;99.90;;;;;;5024112;28;20072;-58
2023/12/04 03:42:24;;;;;;;7.30;4.05;;;-1.60;99.90;;;;;;5017402;28;20080;-57
2023/12/04 03:44:49;;;;;;;8.95;4.63;;;-1.60;99.90;;;;;;5022714;28;20068;-60
2023/12/04 03:47:15;;;;;;;12.23;4.97;;;-1.60;99.90;;;;;;5022570;28;20034;-54
2023/12/04 03:49:41;;;;;;;8.82;4.93;;;-1.50;99.90;;;;;;5025338;28;20037;-54
2023/12/04 03:52:06;;;;;;;10.00;5.32;;;-1.60;99.90;;;;;;5020724;28;20120;-55
2023/12/04 03:54:32;;;;;;;9.50;4.40;;;-1.50;99.90;;;;;;5029079;28;20532;-58
2023/12/04 03:56:57;;;;;;;8.60;4.32;;;-1.50;99.90;;;;;;5024749;28;20072;-57
2023/12/04 03:59:23;;;;;;;8.82;4.72;;;-1.50;99.90;;;;;;5025410;28;20037;-57
2023/12/04 04:01:48;;;;;;;7.65;4.40;;;-1.50;99.90;;;;;;5013517;28;20038;-58
2023/12/04 04:04:14;;;;;;;7.43;4.05;;;-1.50;99.90;;;;;;5010090;28;20029;-59
2023/12/04 04:06:39;;;;;;;11.85;5.97;;;-1.40;99.90;;;;;;5006764;28;20506;-59
2023/12/04 04:09:05;;;;;;;13.93;7.03;;;-1.50;99.90;;;;;;5002070;28;20030;-56
2023/12/04 04:11:31;;;;;;;13.80;7.65;;;-1.50;99.90;;;;;;5007467;28;20104;-58
2023/12/04 04:13:57;;;;;;;13.82;7.72;;;-1.50;99.90;;;;;;5002446;28;20037;-60
2023/12/04 04:16:22;;;;;;;17.13;8.85;;;-1.50;99.90;;;;;;5011483;28;20612;-59
2023/12/04 04:18:48;;;;;;;11.20;6.15;;;-1.60;99.90;;;;;;5004259;28;20149;-58
2023/12/04 04:21:13;;;;;;;12.57;6.50;;;-1.60;99.90;;;;;;5009920;28;20312;-61
2023/12/04 04:23:39;;;;;;;11.20;5.65;;;-1.60;99.90;;;;;;5000586;28;20037;-52
2023/12/04 04:26:05;;;;;;;11.48;5.20;;;-1.60;99.90;;;;;;5009644;28;20413;-52
2023/12/04 04:28:30;;;;;;;12.77;6.65;;;-1.60;99.90;;;;;;5004353;28;20496;-54
2023/12/04 04:30:56;;;;;;;12.48;5.95;;;-1.60;99.90;;;;;;5014545;28;20559;-54
2023/12/04 04:33:21;;;;;;;10.23;5.63;;;-1.60;99.90;;;;;;5021271;28;20037;-53
2023/12/04 04:35:47;;;;;;;11.10;5.50;;;-1.70;99.90;;;;;;5026620;28;20041;-52
2023/12/04 04:38:12;;;;;;;10.32;5.22;;;-1.70;99.90;;;;;;5020279;28;20452;-57
2023/12/04 04:40:41;;;;;;;11.07;6.05;;;-1.70;99.90;;;;;;5026653;28;20103;-52
2023/12/04 04:43:08;;;;;;;12.50;6.50;;;-1.60;99.90;;;;;;5023250;28;20052;-54
2023/12/04 04:45:33;;;;;;;15.18;7.70;;;-1.60;99.90;;;;;;5026663;28;20041;-53
2023/12/04 04:47:59;;;;;;;17.75;7.93;;;-1.60;99.90;;;;;;5021730;28;20040;-57
2023/12/04 04:50:25;;;;;;;15.35;7.40;;;-1.70;99.90;;;;;;5027563;28;20036;-58
2023/12/04 04:52:50;;;;;;;13.82;7.70;;;-1.70;99.90;;;;;;5020671;28;20034;-59
2023/12/04 04:55:16;;;;;;;13.68;7.63;;;-1.70;99.90;;;;;;5027006;28;20033;-57
2023/12/04 04:57:42;;;;;;;17.00;7.85;;;-1.70;99.90;;;;;;5020050;28;20636;-58
2023/12/04 05:00:08;;;;;;;15.52;7.07;;;-1.70;99.90;;;;;;5027702;28;20065;-60
2023/12/04 05:02:35;;;;;;;14.18;7.55;;;-1.70;99.90;;;;;;5000894;28;20080;-57
2023/12/04 05:05:03;;;;;;;14.43;8.05;;;-1.70;99.90;;;;;;5005025;28;20062;-60
2023/12/04 05:07:29;;;;;;;13.00;7.20;;;-1.80;99.90;;;;;;4999702;28;20065;-50
2023/12/04 05:09:54;;;;;;;14.90;7.97;;;-1.80;99.90;;;;;;5005706;28;20045;-57
2023/12/04 05:12:20;;;;;;;12.07;7.40;;;-1.70;99.90;;;;;;5002354;28;20038;-55
2023/12/04 05:14:45;;;;;;;17.08;7.20;;;-1.80;99.90;;;;;;5004677;28;20100;-57
2023/12/04 05:17:11;;;;;;;15.45;8.30;;;-1.80;99.90;;;;;;5003786;28;20610;-58
2023/12/04 05:19:36;;;;;;;15.05;8.05;;;-1.80;99.90;;;;;;5006871;28;20045;-56
2023/12/04 05:22:02;;;;;;;19.30;8.95;;;-1.80;99.90;;;;;;5003406;28;20464;-56
2023/12/04 05:24:28;;;;;;;16.35;8.98;;;-1.90;99.90;;;;;;5001523;28;20043;-58
2023/12/04 05:26:53;;;;;;;16.33;8.77;;;-1.90;99.90;;;;;;5003625;28;20045;-59
2023/12/04 05:29:19;;;;;;;14.85;7.97;;;-1.90;99.90;;;;;;5011265;28;20049;-55
2023/12/04 05:31:44;;;;;;;14.90;8.13;;;-1.80;99.90;;;;;;5018024;28;20565;-59
2023/12/04 05:34:10;;;;;;;15.02;8.13;;;-1.80;99.90;;;;;;5024162;28;20060;-59
2023/12/04 05:36:35;;;;;;;16.05;8.40;;;-1.90;99.90;;;;;;5025593;28;20103;-59
2023/12/04 05:39:01;;;;;;;16.13;8.02;;;-1.90;99.90;;;;;;5022240;28;20111;-59
2023/12/04 05:41:26;;;;;;;14.25;7.25;;;-1.80;99.90;;;;;;5025434;28;20029;-59
2023/12/04 05:43:52;;;;;;;13.23;7.32;;;-1.90;99.90;;;;;;5022987;28;20657;-58
2023/12/04 05:46:18;;;;;;;16.02;7.85;;;-1.90;99.90;;;;;;5022798;28;20046;-59
2023/12/04 05:48:44;;;;;;;12.23;6.82;;;-1.90;99.90;;;;;;5018056;28;20100;-61
2023/12/04 05:51:11;;;;;;;12.95;6.03;;;-1.90;99.90;;;;;;5025527;28;20577;-60
2023/12/04 05:53:37;;;;;;;13.25;6.78;;;-1.90;99.90;;;;;;5020386;28;20049;-59
2023/12/04 05:56:04;;;;;;;13.13;6.65;;;-1.90;99.90;;;;;;5025360;28;20045;-56
2023/12/04 05:58:30;;;;;;;13.40;7.07;;;-1.90;99.90;;;;;;5019855;28;20049;-57
2023/12/04 06:00:55;;;;;;;12.60;6.53;;;-1.90;99.90;;;;;;5018731;28;20473;-60
2023/12/04 06:03:21;;;;;;;10.52;6.20;;;-1.90;99.90;;;;;;5000121;28;20050;-57
2023/12/04 06:05:47;;;;;;;13.55;6.70;;;-1.90;99.90;;;;;;5005111;28;20045;-54
2023/12/04 06:08:12;;;;;;;13.68;6.50;;;-1.90;99.90;;;;;;4998638;28;20091;-53
2023/12/04 06:10:38;;;;;;;14.65;7.28;;;-1.90;99.90;;;;;;5007512;28;20038;-57
2023/12/04 06:13:03;;;;;;;15.02;8.65;;;-1.80;99.90;;;;;;5002485;28;20160;-54
2023/12/04 06:15:29;;;;;;;11.90;6.20;;;-1.90;99.90;;;;;;5005615;28;20068;-55
2023/12/04 06:17:54;;;;;;;10.65;5.68;;;-1.90;99.90;;;;;;5005808;28;20037;-52
2023/12/04 06:20:20;;;;;;;14.27;7.72;;;-1.90;99.90;;;;;;5026734;28;20419;-60
2023/12/04 06:22:46;;;;;;;13.38;6.38;;;-1.90;99.90;;;;;;4997943;28;20045;-58
2023/12/04 06:25:12;;;;;;;13.90;6.65;;;-1.90;99.90;;;;;;4998138;28;20041;-60
2023/12/04 06:27:38;;;;;;;13.55;7.05;;;-1.80;99.90;;;;;;4999957;28;20042;-59
2023/12/04 06:30:05;;;;;;;19.05;8.82;;;-1.80;99.90;;;;;;5005312;28;20409;-59
2023/12/04 06:32:31;;;;;;;44.25;17.30;;;-1.80;99.90;;;;;;5022948;28;20034;-59
2023/12/04 06:34:57;;;;;;;14.65;8.20;;;-1.80;99.90;;;;;;5024633;28;20049;-60
2023/12/04 06:37:23;;;;;;;15.00;6.75;;;-1.80;99.90;;;;;;5019909;28;20042;-59
2023/12/04 06:39:52;;;;;;;11.13;6.22;;;-1.70;99.90;;;;;;5022809;28;20529;-59
2023/12/04 06:42:18;;;;;;;10.45;5.85;;;-1.70;99.90;;;;;;5021626;28;20064;-56
2023/12/04 06:44:43;;;;;;;14.32;7.65;;;-1.70;99.90;;;;;;5024268;28;20637;-58
2023/12/04 06:47:11;;;;;;;16.40;9.68;;;-1.90;99.90;;;;;;5021311;28;20429;-55
2023/12/04 06:49:37;;;;;;;12.30;6.50;;;-1.90;99.90;;;;;;5021015;28;20049;-59
2023/12/04 06:52:03;;;;;;;15.00;7.93;;;-1.90;99.90;;;;;;5022212;28;20175;-59
2023/12/04 06:54:29;;;;;;;13.23;6.53;;;-1.90;99.90;;;;;;5026646;28;20128;-54
2023/12/04 06:56:54;;;;;;;12.23;6.93;;;-2.00;99.90;;;;;;5023238;28;20128;-58
2023/12/04 06:59:20;;;;;;;13.50;6.82;;;-1.90;99.90;;;;;;5029487;28;20033;-52
2023/12/04 07:01:46;;;;;;;12.55;7.18;;;-1.80;99.90;;;;;;5025251;28;20042;-53
2023/12/04 07:04:12;;;;;;;12.35;6.60;;;-1.80;99.90;;;;;;5018392;28;20033;-58
2023/12/04 07:06:38;;;;;;;13.95;7.05;;;-1.80;99.90;;;;;;5031915;28;20037;-57
2023/12/04 07:09:04;;;;;;;14.57;8.10;;;-1.80;99.90;;;;;;5016669;28;20048;-54
2023/12/04 07:11:30;;;;;;;12.35;7.15;;;-1.70;99.90;;;;;;5030883;28;20037;-59
2023/12/04 07:13:56;;;;;;;16.15;8.80;;;-1.80;99.90;;;;;;5017978;28;20387;-57
2023/12/04 07:16:21;;;;;;;19.90;7.95;;;-1.80;99.90;;;;;;5030993;28;20053;-58
2023/12/04 07:18:47;;;;;;;12.68;6.40;;;-1.90;99.90;;;;;;5019511;28;20135;-59
2023/12/04 07:21:12;;;;;;;18.42;7.20;;;-1.90;99.90;;;;;;5028384;28;20033;-56
2023/12/04 07:23:38;;;;;;;18.23;8.98;;;-1.80;99.90;;;;;;5022030;28;20183;-60
2023/12/04 07:26:06;;;;;;;18.63;9.00;;;-1.80;99.90;;;;;;5033722;28;20761;-56
2023/12/04 07:28:32;;;;;;;12.15;6.53;;;-1.90;99.90;;;;;;5024835;28;20120;-55
2023/12/04 07:30:58;;;;;;;10.18;5.70;;;-1.80;99.90;;;;;;5027469;28;20033;-57
2023/12/04 07:33:23;;;;;;;9.15;4.88;;;-1.70;99.90;;;;;;5005505;28;20052;-54
2023/12/04 07:35:49;;;;;;;11.13;6.28;;;-1.70;99.90;;;;;;5012980;28;20046;-54
2023/12/04 07:38:15;;;;;;;11.75;5.43;;;-1.60;99.90;;;;;;5005948;28;20096;-50
2023/12/04 07:40:40;;;;;;;12.32;6.45;;;-1.60;99.90;;;;;;5012157;28;20120;-53
2023/12/04 07:43:05;;;;;;;11.20;5.68;;;-1.50;99.90;;;;;;5004636;28;20046;-59
2023/12/04 07:45:31;;;;;;;9.15;4.85;;;-1.50;99.90;;;;;;5011828;28;20114;-59
2023/12/04 07:47:57;;;;;;;10.48;5.60;;;-1.40;99.90;;;;;;5001492;28;20049;-56
2023/12/04 07:50:22;;;;;;;10.77;5.57;;;-1.40;99.90;;;;;;5011003;28;20042;-59
2023/12/04 07:52:48;;;;;;;9.18;5.05;;;-1.40;99.90;;;;;;5002258;28;20557;-54
2023/12/04 07:55:14;;;;;;;10.65;5.82;;;-1.40;99.90;;;;;;5016838;28;20045;-58
2023/12/04 07:57:40;;;;;;;11.65;5.97;;;-1.40;99.90;;;;;;5011215;28;20453;-62
2023/12/04 08:00:06;;;;;;;12.25;6.25;;;-1.40;99.90;;;;;;5003993;28;20078;-61
2023/12/04 08:02:31;;;;;;;9.07;5.25;;;-1.50;99.90;;;;;;5013522;28;20061;-58
2023/12/04 08:04:57;;;;;;;10.05;5.63;;;-1.40;99.90;;;;;;5033476;28;20069;-62
2023/12/04 08:07:22;;;;;;;13.60;5.60;;;-1.40;99.90;;;;;;5022377;28;20137;-58
2023/12/04 08:09:48;;;;;;;11.50;5.57;;;-1.40;99.90;;;;;;5025064;28;20662;-60
2023/12/04 08:12:14;;;;;;;9.60;5.22;;;-1.30;99.90;;;;;;5025720;28;20025;-61
2023/12/04 08:14:39;;;;;;;9.45;4.95;;;-1.20;99.90;;;;;;5028083;28;20048;-62
2023/12/04 08:17:05;;;;;;;10.25;5.38;;;-1.30;99.90;;;;;;5027143;28;20049;-60
2023/12/04 08:19:31;;;;;;;14.32;6.90;;;-1.30;99.90;;;;;;5024101;28;20119;-64
2023/12/04 08:21:57;;;;;;;10.80;5.95;;;-1.30;99.90;;;;;;5026040;28;21018;-61
2023/12/04 08:24:22;;;;;;;12.48;7.28;;;-1.30;99.90;;;;;;5022086;28;20049;-61
2023/12/04 08:26:50;;;;;;;17.50;9.57;;;-1.40;99.90;;;;;;5025975;28;20137;-61
2023/12/04 08:29:16;;;;;;;19.20;8.85;;;-1.50;99.90;;;;;;5017670;28;20778;-63
2023/12/04 08:31:42;;;;;;;17.50;9.57;;;-1.70;99.90;;;;;;5025449;28;20061;-59
2023/12/04 08:34:08;;;;;;;13.80;8.35;;;-1.80;99.90;;;;;;5024964;28;20119;-53
2023/12/04 08:36:33;;;;;;;15.50;8.43;;;-1.80;99.90;;;;;;5020521;28;20046;-53
2023/12/04 08:38:59;;;;;;;17.15;9.43;;;-1.80;99.90;;;;;;5023807;28;20171;-54
2023/12/04 08:41:24;;;;;;;12.85;7.63;;;-1.80;99.90;;;;;;5031252;28;20049;-58
2023/12/04 08:43:50;;;;;;;19.33;8.65;;;-1.80;99.90;;;;;;5027244;28;20048;-58
2023/12/04 08:46:15;;;;;;;13.88;7.20;;;-1.80;99.90;;;;;;5026335;28;20632;-56
2023/12/04 08:48:42;;;;;;;14.00;6.78;;;-1.70;99.90;;;;;;5021316;28;20045;-58
2023/12/04 08:51:10;;;;;;;14.90;7.20;;;-1.70;99.90;;;;;;5024390;28;20037;-53
2023/12/04 08:53:36;;;;;;;12.18;6.50;;;-1.60;99.90;;;;;;5022755;28;20037;-58
2023/12/04 08:56:02;;;;;;;13.98;6.53;;;-1.60;99.90;;;;;;5027000;28;20073;-54
2023/12/04 08:58:28;;;;;;;14.68;7.25;;;-1.50;99.90;;;;;;5026342;28;20440;-58
2023/12/04 09:00:54;;;;;;;13.55;7.57;;;-1.50;99.90;;;;;;5020779;28;20493;-69
2023/12/04 09:03:20;;;;;;;13.40;7.28;;;-1.60;99.90;;;;;;5019045;28;20579;-57
2023/12/04 09:05:49;;;;;;;15.38;8.63;;;-1.50;99.90;;;;;;4999027;28;20041;-56
2023/12/04 09:08:14;;;;;;;14.40;7.72;;;-1.50;99.90;;;;;;5007754;28;20056;-61
2023/12/04 09:10:40;;;;;;;13.73;7.32;;;-1.50;99.90;;;;;;5014945;28;20045;-57
2023/12/04 09:13:06;;;;;;;16.35;7.30;;;-1.50;99.90;;;;;;5000368;28;20042;-60
2023/12/04 09:15:31;;;;;;;12.88;7.68;;;-1.50;99.90;;;;;;5004858;28;20041;-57
2023/12/04 09:17:57;;;;;;;11.60;7.03;;;-1.40;99.90;;;;;;5008917;28;20034;-57
2023/12/04 09:20:23;;;;;;;13.05;7.50;;;-1.40;99.90;;;;;;5014757;28;20228;-55
2023/12/04 09:22:48;;;;;;;12.05;6.78;;;-1.40;99.90;;;;;;5013730;28;20044;-54
2023/12/04 09:25:14;;;;;;;11.48;5.97;;;-1.30;99.90;;;;;;5037877;28;20038;-51
2023/12/04 09:27:40;;;;;;;13.95;7.68;;;-1.30;99.90;;;;;;5010767;28;20057;-53
2023/12/04 09:30:06;;;;;;;13.18;6.80;;;-1.20;99.90;;;;;;5012619;28;20453;-52
2023/12/04 09:32:32;;;;;;;13.23;6.45;;;-1.10;99.90;;;;;;5014264;28;20593;-55
2023/12/04 09:34:58;;;;;;;11.60;6.45;;;-1.20;99.90;;;;;;5011493;28;20042;-57
2023/12/04 09:37:24;;;;;;;10.98;5.93;;;-1.20;99.90;;;;;;5015572;28;20580;-59
2023/12/04 09:39:49;;;;;;;13.90;6.93;;;-1.10;99.90;;;;;;5005143;28;20034;-57
2023/12/04 09:42:18;;;;;;;12.10;6.30;;;-1.10;99.90;;;;;;5008029;28;20095;-54
2023/12/04 09:44:44;;;;;;;11.15;6.38;;;-1.10;99.90;;;;;;5005832;28;20057;-50
2023/12/04 09:47:10;;;;;;;14.38;6.93;;;-1.00;99.90;;;;;;5012346;28;20060;-55
2023/12/04 09:49:36;;;;;;;14.43;6.50;;;-1.10;99.90;;;;;;5005576;28;20041;-51
2023/12/04 09:52:02;;;;;;;10.13;5.65;;;-1.20;99.90;;;;;;5006162;28;20104;-57
2023/12/04 09:54:29;;;;;;;12.43;6.38;;;-1.20;99.90;;;;;;5005739;28;20046;-55
2023/12/04 09:56:55;;;;;;;13.18;7.07;;;-1.20;99.90;;;;;;5005294;28;20112;-52
2023/12/04 09:59:24;;;;;;;11.80;6.38;;;-1.30;99.90;;;;;;5005096;28;20037;-59
2023/12/04 10:01:50;;;;;;;10.93;6.05;;;-1.20;99.90;;;;;;5022720;28;20128;-58
2023/12/04 10:04:16;;;;;;;11.77;6.55;;;-1.20;99.90;;;;;;5024033;28;20041;-57
2023/12/04 10:06:43;;;;;;;11.07;6.35;;;-1.10;99.90;;;;;;5025284;28;20497;-58
2023/12/04 10:09:11;;;;;;;13.25;6.65;;;-1.00;99.90;;;;;;5028087;28;20111;-54
2023/12/04 10:11:41;;;;;;;12.02;6.15;;;-1.00;99.90;;;;;;5030182;28;20045;-58
2023/12/04 10:14:17;;;;;;;10.68;5.97;;;-1.00;99.90;;;;;;5023050;28;20059;-53
2023/12/04 10:16:44;;;;;;;12.75;6.93;;;-1.00;99.90;;;;;;5024825;28;20041;-52
2023/12/04 10:19:17;;;;;;;10.38;5.82;;;-1.00;99.90;;;;;;5023447;28;20049;-51
2023/12/04 10:21:44;;;;;;;11.40;6.13;;;-1.00;99.90;;;;;;5024686;28;20041;-55
2023/12/04 10:24:10;;;;;;;10.98;5.75;;;-0.90;99.90;;;;;;5028766;28;20160;-53
2023/12/04 10:26:35;;;;;;;10.07;6.00;;;-0.90;99.90;;;;;;5024680;28;20811;-52
2023/12/04 10:29:03;;;;;;;10.57;5.70;;;-0.90;99.90;;;;;;5023595;28;20045;-55
2023/12/04 10:31:35;;;;;;;10.63;5.13;;;-0.80;99.90;;;;;;5024520;28;20050;-57
2023/12/04 10:34:04;;;;;;;9.57;5.47;;;-0.80;99.90;;;;;;5023369;28;20041;-52
2023/12/04 10:36:31;;;;;;;9.93;5.55;;;-0.60;99.90;;;;;;5024888;28;20508;-59
2023/12/04 10:39:00;;;;;;;8.63;5.30;;;-0.60;99.90;;;;;;5022840;28;20038;-55
2023/12/04 10:41:26;;;;;;;12.70;6.60;;;-0.60;99.90;;;;;;5024233;28;20034;-52
2023/12/04 10:43:52;;;;;;;10.45;5.93;;;-0.60;99.90;;;;;;5022162;28;20040;-54
2023/12/04 10:46:19;;;;;;;11.57;6.63;;;-0.60;99.90;;;;;;5024013;28;20041;-51
2023/12/04 10:48:48;;;;;;;10.65;5.57;;;-0.70;99.90;;;;;;5028329;28;20041;-54
2023/12/04 10:51:17;;;;;;;9.13;5.68;;;-0.70;99.90;;;;;;5024396;28;20107;-55
2023/12/04 10:53:42;;;;;;;10.23;5.68;;;-0.70;99.90;;;;;;5022308;28;20029;-53
2023/12/04 10:56:31;;;;;;;13.25;6.78;;;-0.70;99.90;;;;;;5028620;28;20570;-53
2023/12/04 10:58:59;;;;;;;10.85;6.07;;;-0.70;99.90;;;;;;5021161;28;20041;-57
2023/12/04 11:01:25;;;;;;;11.63;5.82;;;-0.70;99.90;;;;;;5013613;28;20041;-57
2023/12/04 11:03:55;;;;;;;11.80;6.25;;;-0.70;99.90;;;;;;5003795;28;20064;-54
2023/12/04 11:06:21;;;;;;;11.45;6.68;;;-0.70;99.90;;;;;;5004038;28;20042;-52
2023/12/04 11:08:48;;;;;;;11.98;6.70;;;-0.70;99.90;;;;;;5002732;28;20038;-58
2023/12/04 11:11:26;;;;;;;12.02;6.53;;;-0.80;99.90;;;;;;5000444;28;20038;-58
2023/12/04 11:13:57;;;;;;;13.32;7.40;;;-0.70;99.90;;;;;;4998848;28;20069;-57
2023/12/04 11:16:23;;;;;;;13.32;6.97;;;-0.70;99.90;;;;;;4999424;28;20145;-56
2023/12/04 11:19:01;;;;;;;16.80;8.82;;;-0.80;99.90;;;;;;4998380;28;20516;-64
2023/12/04 11:21:29;;;;;;;13.52;7.28;;;-0.80;99.90;;;;;;5001560;28;20041;-62
2023/12/04 11:23:54;;;;;;;12.75;7.15;;;-0.80;99.90;;;;;;5002584;28;20096;-59
2023/12/04 11:26:22;;;;;;;10.90;6.13;;;-0.90;99.90;;;;;;5007606;28;20042;-61
2023/12/04 11:28:48;;;;;;;24.35;6.63;;;-1.00;99.90;;;;;;5002245;28;20122;-63
2023/12/04 11:31:15;;;;;;;12.25;6.93;;;-0.90;99.90;;;;;;5012373;28;20064;-58
2023/12/04 11:33:41;;;;;;;14.40;7.40;;;-0.90;99.90;;;;;;5021727;28;20111;-62
2023/12/04 11:36:12;;;;;;;14.50;8.15;;;-0.90;99.90;;;;;;5028392;28;20060;-56
2023/12/04 11:38:43;;;;;;;12.88;7.32;;;-0.80;99.90;;;;;;5024449;28;20044;-60
2023/12/04 11:41:20;;;;;;;12.98;7.05;;;-0.80;99.90;;;;;;5016284;28;20049;-53
2023/12/04 11:43:49;;;;;;;12.30;7.25;;;-0.80;99.90;;;;;;5021704;28;20047;-56
2023/12/04 11:46:23;;;;;;;12.85;7.38;;;-0.70;99.90;;;;;;5024637;28;20072;-55
2023/12/04 11:48:49;;;;;;;12.60;7.20;;;-0.70;99.90;;;;;;5023777;28;20437;-57
2023/12/04 11:51:39;;;;;;;17.90;8.27;;;-0.60;99.90;;;;;;5024247;28;20033;-60
2023/12/04 11:54:08;;;;;;;12.65;7.75;;;-0.70;99.90;;;;;;5020893;28;20045;-58
2023/12/04 11:56:34;;;;;;;18.40;9.25;;;-0.70;99.90;;;;;;5024123;28;20714;-53
2023/12/04 11:59:07;;;;;;;17.05;9.10;;;-0.70;99.90;;;;;;5019888;28;20036;-57
2023/12/04 12:01:42;;;;;;;13.38;8.13;;;-0.90;99.90;;;;;;5025858;28;20461;-58
2023/12/04 12:04:07;;;;;;;14.73;8.50;;;-0.90;99.90;;;;;;5023085;28;20473;-56
2023/12/04 12:06:33;;;;;;;13.52;8.02;;;-1.00;99.90;;;;;;5023629;28;20044;-58
2023/12/04 12:08:59;;;;;;;16.55;9.05;;;-0.80;99.90;;;;;;5020311;28;20041;-58
2023/12/04 12:11:26;;;;;;;16.65;8.85;;;-0.80;99.90;;;;;;5022664;28;20398;-57
2023/12/04 12:13:53;;;;;;;14.85;8.85;;;-0.80;99.90;;;;;;5020684;28;20046;-52
2023/12/04 12:16:19;;;;;;;15.25;8.00;;;-0.70;99.90;;;;;;5028934;28;20125;-56
2023/12/04 12:18:44;;;;;;;17.25;8.95;;;-0.70;99.90;;;;;;5024164;28;20539;-57
2023/12/04 12:21:10;;;;;;;15.38;8.13;;;-0.60;99.90;;;;;;5029272;28;20037;-57
2023/12/04 12:23:36;;;;;;;14.82;8.40;;;-0.70;99.90;;;;;;5025753;28;20048;-55
2023/12/04 12:26:02;;;;;;;18.70;9.65;;;-0.70;99.90;;;;;;5028140;28;20429;-57
2023/12/04 12:28:29;;;;;;;16.52;8.82;;;-0.80;99.90;;;;;;5027719;28;20045;-56
2023/12/04 12:30:55;;;;;;;16.05;9.15;;;-0.80;99.90;;;;;;5026060;28;20269;-52